Time;durP1;ratioP1;P1;durP2;ratioP2;P2;SDS_P1;SDS_P2;PMS_P1;PMS_P2;Temp;Humidity;BMP_temperature;BMP_pressure;BME280_temperature;BME280_humidity;BME280_pressure;Samples;Min_cycle;Max_cycle;Signal;HPM_P1;HPM_P2
2022/08/18 00:01:23;;;;;;;2.22;1.90;;;24.70;66.20;;;;;;5027505;28;44039;-65
2022/08/18 00:03:51;;;;;;;1.80;1.70;;;24.60;66.10;;;;;;5032557;28;43984;-65
2022/08/18 00:06:25;;;;;;;2.15;1.88;;;24.70;66.20;;;;;;5039349;28;43543;-65
2022/08/18 00:08:59;;;;;;;2.17;1.80;;;24.60;66.10;;;;;;5041749;28;43565;-65
2022/08/18 00:11:29;;;;;;;2.25;1.70;;;24.60;66.20;;;;;;5043006;28;44862;-65
2022/08/18 00:14:15;;;;;;;2.08;1.60;;;24.60;66.20;;;;;;5042002;28;44077;-65
2022/08/18 00:16:51;;;;;;;2.30;2.10;;;24.60;66.20;;;;;;5039270;28;43996;-65
2022/08/18 00:19:21;;;;;;;2.00;1.75;;;24.60;66.20;;;;;;5036093;28;43511;-64
2022/08/18 00:22:10;;;;;;;1.95;1.85;;;24.60;66.20;;;;;;5033212;28;44810;-65
2022/08/18 00:24:44;;;;;;;1.80;1.70;;;24.60;66.20;;;;;;5034981;28;43818;-65
2022/08/18 00:27:20;;;;;;;1.80;1.70;;;24.60;66.20;;;;;;5022813;28;43399;-65
2022/08/18 00:29:51;;;;;;;1.80;1.70;;;24.60;66.20;;;;;;5038002;28;43521;-65
2022/08/18 00:32:24;;;;;;;1.70;1.60;;;24.60;66.20;;;;;;5036999;28;44160;-65
2022/08/18 00:34:53;;;;;;;2.95;1.92;;;24.60;66.20;;;;;;5037352;28;44062;-65
2022/08/18 00:37:22;;;;;;;1.80;1.70;;;24.60;66.20;;;;;;5033761;28;43391;-65
2022/08/18 00:39:52;;;;;;;2.25;1.70;;;24.60;66.20;;;;;;5039286;28;44259;-65
2022/08/18 00:42:24;;;;;;;1.77;1.67;;;24.50;66.10;;;;;;5034021;28;43908;-65
2022/08/18 00:44:58;;;;;;;1.70;1.60;;;24.50;66.10;;;;;;5041815;28;43670;-65
2022/08/18 00:47:28;;;;;;;2.42;1.90;;;24.50;66.10;;;;;;5031040;28;43534;-65
2022/08/18 00:50:13;;;;;;;2.15;1.60;;;24.60;66.10;;;;;;5040404;28;43428;-65
2022/08/18 00:52:48;;;;;;;2.03;1.70;;;24.60;66.20;;;;;;5042576;28;44219;-65
2022/08/18 00:55:17;;;;;;;1.77;1.67;;;24.60;66.20;;;;;;5031255;28;43721;-65
2022/08/18 00:57:48;;;;;;;1.92;1.83;;;24.50;66.10;;;;;;5040039;28;43393;-65
2022/08/18 01:00:16;;;;;;;2.10;1.90;;;24.60;66.30;;;;;;5034607;28;43419;-65
2022/08/18 01:02:52;;;;;;;1.83;1.70;;;24.50;66.10;;;;;;5039988;28;43815;-65
2022/08/18 01:05:44;;;;;;;1.80;1.70;;;24.50;66.10;;;;;;5030565;28;43682;-65
2022/08/18 01:08:14;;;;;;;2.10;1.70;;;24.50;66.10;;;;;;5028948;28;43434;-65
2022/08/18 01:10:44;;;;;;;1.75;1.65;;;24.50;66.20;;;;;;5041098;28;43480;-65
2022/08/18 01:13:11;;;;;;;2.33;1.95;;;24.50;66.20;;;;;;5041074;28;44987;-65
2022/08/18 01:15:39;;;;;;;1.98;1.63;;;24.50;66.20;;;;;;5039675;28;43970;-65
2022/08/18 01:24:08;;;;;;;2.22;1.85;;;24.50;66.20;;;;;;5024725;28;44959;-65
2022/08/18 01:26:39;;;;;;;2.40;2.17;;;24.50;66.30;;;;;;5035810;28;43993;-65
2022/08/18 01:29:11;;;;;;;2.33;1.98;;;24.50;66.30;;;;;;5040926;28;43450;-64
2022/08/18 01:31:56;;;;;;;1.95;1.85;;;24.50;66.30;;;;;;5036202;28;43412;-65
2022/08/18 01:34:26;;;;;;;1.80;1.70;;;24.50;66.30;;;;;;5034661;28;43782;-65
2022/08/18 01:36:54;;;;;;;2.10;1.88;;;24.50;66.30;;;;;;5041882;28;43485;-65
2022/08/18 01:39:23;;;;;;;2.10;1.80;;;24.50;66.30;;;;;;5037179;28;43577;-64
2022/08/18 01:42:13;;;;;;;2.05;1.65;;;24.50;66.30;;;;;;5033040;28;43563;-65
2022/08/18 01:44:41;;;;;;;2.00;1.80;;;24.50;66.30;;;;;;5030379;28;44989;-65
2022/08/18 01:47:10;;;;;;;2.03;1.85;;;24.50;66.30;;;;;;5034824;28;43415;-65
2022/08/18 01:49:42;;;;;;;1.88;1.75;;;24.40;66.20;;;;;;5039865;28;43570;-65
2022/08/18 01:52:16;;;;;;;2.20;1.92;;;24.50;66.30;;;;;;5041338;28;43434;-65
2022/08/18 01:54:44;;;;;;;2.78;1.70;;;24.50;66.30;;;;;;5037309;28;44937;-65
2022/08/18 01:57:15;;;;;;;1.63;1.52;;;24.50;66.30;;;;;;5038861;28;43685;-65
2022/08/18 01:59:43;;;;;;;1.65;1.55;;;24.50;66.30;;;;;;5034443;28;43499;-65
2022/08/18 02:02:15;;;;;;;1.77;1.60;;;24.40;66.20;;;;;;5035756;28;43512;-65
2022/08/18 02:04:46;;;;;;;2.72;1.80;;;24.40;66.20;;;;;;5033646;28;43853;-65
2022/08/18 02:07:13;;;;;;;2.00;1.80;;;24.40;66.30;;;;;;5036552;28;44012;-65
2022/08/18 02:09:42;;;;;;;2.28;1.95;;;24.40;66.30;;;;;;5033385;28;43382;-65
2022/08/18 02:12:12;;;;;;;1.83;1.73;;;24.40;66.20;;;;;;5035461;28;43519;-64
2022/08/18 02:14:39;;;;;;;1.70;1.60;;;24.40;66.30;;;;;;5043815;28;44973;-65
2022/08/18 02:17:10;;;;;;;2.13;1.90;;;24.40;66.30;;;;;;5041996;28;43498;-65
2022/08/18 02:19:41;;;;;;;1.92;1.63;;;24.40;66.30;;;;;;5035382;28;43537;-65
2022/08/18 02:22:11;;;;;;;2.25;1.70;;;24.40;66.30;;;;;;5042436;28;43485;-65
2022/08/18 02:24:39;;;;;;;2.28;1.95;;;24.30;66.20;;;;;;5042178;28;44904;-65
2022/08/18 02:27:09;;;;;;;1.70;1.60;;;24.40;66.30;;;;;;5034682;28;44318;-65
2022/08/18 02:29:37;;;;;;;1.80;1.70;;;24.40;66.30;;;;;;5037998;28;43573;-64
2022/08/18 02:32:05;;;;;;;1.90;1.80;;;24.40;66.30;;;;;;5039010;28;43530;-65
2022/08/18 02:34:33;;;;;;;1.80;1.70;;;24.30;66.20;;;;;;5037668;28;44705;-65
2022/08/18 02:37:01;;;;;;;2.08;1.70;;;24.40;66.30;;;;;;5038297;28;43936;-65
2022/08/18 02:39:29;;;;;;;1.70;1.60;;;24.30;66.30;;;;;;5029547;28;43552;-65
2022/08/18 02:41:57;;;;;;;2.00;1.80;;;24.40;66.30;;;;;;5038126;28;43459;-65
2022/08/18 02:44:24;;;;;;;1.60;1.50;;;24.40;66.30;;;;;;5044115;28;44032;-65
2022/08/18 02:46:53;;;;;;;1.70;1.60;;;24.40;66.30;;;;;;5036932;28;43525;-65
2022/08/18 02:49:21;;;;;;;2.05;1.70;;;24.40;66.30;;;;;;5039303;28;43462;-65
2022/08/18 02:51:50;;;;;;;1.70;1.60;;;24.40;66.40;;;;;;5042474;28;43419;-65
2022/08/18 02:54:24;;;;;;;2.15;2.00;;;24.30;66.20;;;;;;5041072;28;43751;-65
2022/08/18 02:56:52;;;;;;;1.73;1.60;;;24.30;66.30;;;;;;5035776;28;43987;-65
2022/08/18 02:59:23;;;;;;;1.60;1.50;;;24.30;66.20;;;;;;5037410;28;43446;-65
2022/08/18 03:01:53;;;;;;;1.63;1.52;;;24.30;66.30;;;;;;5037096;28;43496;-65
2022/08/18 03:04:26;;;;;;;1.67;1.57;;;24.30;66.30;;;;;;5039052;28;45340;-65
2022/08/18 03:06:59;;;;;;;1.77;1.55;;;24.30;66.30;;;;;;5041626;28;43986;-65
2022/08/18 03:09:28;;;;;;;1.92;1.70;;;24.30;66.30;;;;;;5037535;28;44076;-65
2022/08/18 03:11:56;;;;;;;2.28;1.63;;;24.30;66.30;;;;;;5042684;28;43496;-65
2022/08/18 03:14:24;;;;;;;2.47;1.60;;;24.30;66.30;;;;;;5042801;28;44700;-65
2022/08/18 03:16:51;;;;;;;1.70;1.60;;;24.30;66.30;;;;;;5035990;28;43958;-65
2022/08/18 03:19:23;;;;;;;1.83;1.73;;;24.30;66.30;;;;;;5038996;28;43451;-64
2022/08/18 03:21:51;;;;;;;2.13;1.50;;;24.30;66.30;;;;;;5037248;28;43504;-65
2022/08/18 03:24:20;;;;;;;1.52;1.42;;;24.30;66.30;;;;;;5034686;28;43898;-65
2022/08/18 03:26:48;;;;;;;1.60;1.50;;;24.30;66.30;;;;;;5041493;28;43830;-64
2022/08/18 03:29:16;;;;;;;2.03;1.73;;;24.30;66.30;;;;;;5039276;28;43418;-64
2022/08/18 03:31:44;;;;;;;1.73;1.63;;;24.30;66.40;;;;;;5038594;28;43525;-65
2022/08/18 03:34:12;;;;;;;1.98;1.88;;;24.30;66.30;;;;;;5028357;28;43822;-65
2022/08/18 03:36:40;;;;;;;1.83;1.73;;;24.30;66.40;;;;;;5051662;28;44956;-65
2022/08/18 03:39:10;;;;;;;1.73;1.63;;;24.30;66.30;;;;;;5040029;28;43474;-64
2022/08/18 03:41:42;;;;;;;1.70;1.60;;;24.30;66.30;;;;;;5039385;28;43402;-65
2022/08/18 03:44:26;;;;;;;1.83;1.70;;;24.30;66.40;;;;;;5030904;28;44629;-65
2022/08/18 03:46:54;;;;;;;1.63;1.50;;;24.30;66.40;;;;;;5037986;28;43470;-64
2022/08/18 03:49:22;;;;;;;1.73;1.63;;;24.30;66.40;;;;;;5039846;28;43489;-64
2022/08/18 03:51:50;;;;;;;2.00;1.80;;;24.30;66.40;;;;;;5043317;28;43573;-64
2022/08/18 03:54:18;;;;;;;1.70;1.60;;;24.30;66.40;;;;;;5036439;28;45272;-64
2022/08/18 03:56:48;;;;;;;1.80;1.60;;;24.30;66.40;;;;;;5038307;28;44033;-64
2022/08/18 03:59:19;;;;;;;1.67;1.57;;;24.30;66.40;;;;;;5039211;28;43486;-64
2022/08/18 04:01:48;;;;;;;1.52;1.40;;;24.30;66.40;;;;;;5027705;28;43416;-64
2022/08/18 04:04:19;;;;;;;1.75;1.65;;;24.30;66.40;;;;;;5035626;28;43999;-64
2022/08/18 04:06:54;;;;;;;1.50;1.40;;;24.20;66.30;;;;;;5038283;28;43382;-65
2022/08/18 04:09:23;;;;;;;1.80;1.70;;;24.30;66.40;;;;;;5025028;28;43450;-65
2022/08/18 04:11:51;;;;;;;1.70;1.60;;;24.20;66.40;;;;;;5030650;28;43578;-64
2022/08/18 04:14:23;;;;;;;2.33;1.50;;;24.30;66.40;;;;;;5042696;28;44952;-64
2022/08/18 04:16:51;;;;;;;1.67;1.42;;;24.20;66.30;;;;;;5041604;28;43475;-64
2022/08/18 04:19:19;;;;;;;1.70;1.60;;;24.20;66.40;;;;;;5035541;28;43505;-64
2022/08/18 04:21:57;;;;;;;1.70;1.60;;;24.20;66.30;;;;;;5028394;28;43431;-65
2022/08/18 04:24:27;;;;;;;2.05;1.63;;;24.20;66.30;;;;;;5039519;28;44375;-64
2022/08/18 04:27:00;;;;;;;1.70;1.60;;;24.20;66.40;;;;;;5036640;28;43941;-65
2022/08/18 04:29:30;;;;;;;2.10;1.70;;;24.20;66.40;;;;;;5041850;28;43430;-64
2022/08/18 04:32:02;;;;;;;1.55;1.45;;;24.20;66.30;;;;;;5036501;28;43406;-64
2022/08/18 04:34:32;;;;;;;1.73;1.63;;;24.20;66.30;;;;;;5030698;28;44718;-64
2022/08/18 04:37:01;;;;;;;1.70;1.60;;;24.20;66.30;;;;;;5036608;28;43418;-64
2022/08/18 04:39:29;;;;;;;3.63;1.60;;;24.20;66.40;;;;;;5041687;28;43527;-64
2022/08/18 04:41:58;;;;;;;1.75;1.65;;;24.20;66.40;;;;;;5031391;28;43468;-65
2022/08/18 04:44:25;;;;;;;1.70;1.60;;;24.20;67.00;;;;;;5030453;28;44012;-65
2022/08/18 04:46:53;;;;;;;2.17;1.70;;;24.20;66.40;;;;;;5037016;28;43535;-64
2022/08/18 04:49:24;;;;;;;1.48;1.38;;;24.20;66.30;;;;;;5042713;28;43450;-64
2022/08/18 04:55:00;;;;;;;1.70;1.60;;;24.20;66.40;;;;;;5022672;28;44083;-65
2022/08/18 04:57:30;;;;;;;2.00;1.60;;;24.20;66.40;;;;;;5038771;28;43735;-65
2022/08/18 05:00:00;;;;;;;1.40;1.30;;;24.20;66.40;;;;;;5032789;28;43396;-64
2022/08/18 05:02:28;;;;;;;1.70;1.60;;;24.20;66.40;;;;;;5039348;28;43539;-65
2022/08/18 05:04:56;;;;;;;1.50;1.40;;;24.10;66.40;;;;;;5032358;28;44986;-64
2022/08/18 05:07:24;;;;;;;1.70;1.60;;;24.20;66.40;;;;;;5031340;28;43452;-64
2022/08/18 05:09:55;;;;;;;1.88;1.75;;;24.20;66.50;;;;;;5033485;28;43449;-65
2022/08/18 05:12:23;;;;;;;1.52;1.42;;;24.20;66.50;;;;;;5037798;28;43550;-65
2022/08/18 05:14:53;;;;;;;1.63;1.52;;;24.10;66.40;;;;;;5023317;28;45188;-64
2022/08/18 05:17:20;;;;;;;1.42;1.33;;;24.10;66.40;;;;;;5034301;28;43479;-65
2022/08/18 05:19:50;;;;;;;1.45;1.35;;;24.10;66.50;;;;;;5049112;28;43449;-65
2022/08/18 05:22:19;;;;;;;1.58;1.48;;;24.20;66.50;;;;;;5041887;28;43574;-65
2022/08/18 05:24:56;;;;;;;2.00;1.40;;;24.20;66.30;;;;;;5032010;28;45156;-65
2022/08/18 05:27:24;;;;;;;1.50;1.40;;;24.20;66.40;;;;;;5038442;28;44083;-65
2022/08/18 05:29:52;;;;;;;1.52;1.42;;;24.20;66.40;;;;;;5039700;28;44098;-65
2022/08/18 05:32:19;;;;;;;1.25;1.17;;;24.20;66.40;;;;;;5032855;28;43454;-64
2022/08/18 05:35:17;;;;;;;1.77;1.60;;;24.20;67.10;;;;;;5036393;28;43796;-65
2022/08/18 05:37:47;;;;;;;1.65;1.27;;;24.20;66.50;;;;;;5038657;28;43574;-64
2022/08/18 05:40:15;;;;;;;1.90;1.50;;;24.20;66.40;;;;;;5041888;28;43467;-66
2022/08/18 05:42:43;;;;;;;1.50;1.40;;;24.20;66.50;;;;;;5030228;28;43403;-64
2022/08/18 05:45:14;;;;;;;1.52;1.42;;;24.20;66.50;;;;;;5047531;28;44689;-64
2022/08/18 05:47:42;;;;;;;1.40;1.30;;;24.20;66.40;;;;;;5036763;28;44025;-64
2022/08/18 05:50:15;;;;;;;1.85;1.60;;;24.20;66.40;;;;;;5030287;28;43517;-65
2022/08/18 05:53:00;;;;;;;1.50;1.40;;;24.20;66.60;;;;;;5037855;28;43427;-65
2022/08/18 05:58:24;;;;;;;1.67;1.50;;;24.20;66.40;;;;;;5038861;28;43715;-65
2022/08/18 06:01:04;;;;;;;1.60;1.50;;;24.20;66.50;;;;;;5028110;28;43509;-65
2022/08/18 06:03:39;;;;;;;1.60;1.50;;;24.20;66.50;;;;;;5034140;28;43587;-65
2022/08/18 06:06:18;;;;;;;1.50;1.40;;;24.10;66.50;;;;;;5035371;28;45154;-65
2022/08/18 06:08:55;;;;;;;1.48;1.38;;;24.10;66.50;;;;;;5037874;28;43975;-65
2022/08/18 06:11:24;;;;;;;1.92;1.33;;;24.10;66.50;;;;;;5024940;28;44009;-65
2022/08/18 06:13:52;;;;;;;1.40;1.30;;;24.10;66.50;;;;;;5040922;28;43737;-64
2022/08/18 06:16:58;;;;;;;1.33;1.10;;;24.10;66.50;;;;;;5037504;28;44056;-64
2022/08/18 06:19:25;;;;;;;1.10;1.00;;;24.10;66.50;;;;;;5023112;28;43440;-64
2022/08/18 06:21:59;;;;;;;1.67;1.40;;;24.10;66.50;;;;;;5030455;28;43440;-65
2022/08/18 06:24:41;;;;;;;3.30;1.60;;;24.10;66.50;;;;;;5034083;28;43364;-64
2022/08/18 06:27:27;;;;;;;1.95;1.58;;;24.10;66.60;;;;;;5032954;28;43812;-65
2022/08/18 06:29:58;;;;;;;1.42;1.40;;;24.10;66.50;;;;;;5040781;28;43722;-65
2022/08/18 06:32:45;;;;;;;;;;;24.10;66.60;;;;;;5032155;28;43474;-65
2022/08/18 06:35:32;;;;;;;1.30;1.30;;;24.10;66.60;;;;;;5039875;28;43503;-66
2022/08/18 06:38:37;;;;;;;1.30;1.20;;;24.10;66.60;;;;;;5028799;28;45004;-65
2022/08/18 06:41:13;;;;;;;2.30;1.37;;;24.10;66.60;;;;;;5035998;28;43679;-65
2022/08/18 06:44:05;;;;;;;1.50;1.40;;;24.10;66.60;;;;;;5036144;28;43403;-65
2022/08/18 06:46:45;;;;;;;1.30;1.20;;;24.10;66.60;;;;;;5035671;28;43948;-65
2022/08/18 06:49:39;;;;;;;1.60;1.40;;;24.10;66.60;;;;;;5033833;28;44701;-65
2022/08/18 06:52:26;;;;;;;2.53;1.40;;;24.10;66.50;;;;;;5023150;28;43499;-65
2022/08/18 06:54:58;;;;;;;1.88;1.30;;;24.10;66.50;;;;;;5021865;28;43359;-66
2022/08/18 06:57:53;;;;;;;1.52;1.23;;;24.10;66.60;;;;;;5040017;28;44132;-66
2022/08/18 07:00:25;;;;;;;1.55;1.45;;;24.10;66.50;;;;;;5033688;28;44708;-65
2022/08/18 07:03:03;;;;;;;2.15;1.38;;;24.10;66.50;;;;;;5042771;28;43657;-65
2022/08/18 07:05:32;;;;;;;1.35;1.30;;;24.10;66.50;;;;;;5031619;28;43541;-65
2022/08/18 07:08:05;;;;;;;1.42;1.10;;;24.10;66.60;;;;;;5031519;28;43621;-65
2022/08/18 07:10:41;;;;;;;1.30;1.20;;;24.10;66.50;;;;;;5038663;28;44977;-65
2022/08/18 07:13:11;;;;;;;1.40;1.30;;;24.10;66.50;;;;;;5043451;28;44012;-66
2022/08/18 07:15:40;;;;;;;1.10;1.10;;;24.10;66.50;;;;;;5039986;28;43440;-65
2022/08/18 07:18:09;;;;;;;2.30;1.45;;;24.10;67.10;;;;;;5033021;28;43609;-65
2022/08/18 07:20:59;;;;;;;1.42;1.27;;;24.10;66.50;;;;;;5040892;28;43777;-66
2022/08/18 07:23:39;;;;;;;1.30;1.20;;;24.10;66.40;;;;;;5058090;28;43546;-65
2022/08/18 07:26:15;;;;;;;1.35;1.25;;;24.10;66.40;;;;;;5036205;28;43417;-65
2022/08/18 07:28:49;;;;;;;1.90;1.35;;;24.10;66.50;;;;;;5035897;28;43538;-65
2022/08/18 07:31:25;;;;;;;1.35;1.20;;;24.10;66.40;;;;;;5041249;28;43929;-65
2022/08/18 07:34:11;;;;;;;1.40;1.30;;;24.10;66.40;;;;;;5027882;28;43696;-66
2022/08/18 07:36:49;;;;;;;1.20;1.10;;;24.10;66.40;;;;;;5038582;28;43497;-65
2022/08/18 07:39:43;;;;;;;2.00;1.40;;;24.10;66.40;;;;;;5036992;28;43508;-65
2022/08/18 07:42:31;;;;;;;1.85;1.25;;;24.10;66.30;;;;;;5036146;28;44967;-65
2022/08/18 07:45:43;;;;;;;2.05;1.33;;;24.10;66.60;;;;;;5040196;28;43442;-65
2022/08/18 07:48:22;;;;;;;1.98;1.40;;;24.10;66.50;;;;;;5034675;28;43487;-65
2022/08/18 07:51:22;;;;;;;2.03;1.50;;;24.20;66.70;;;;;;5028235;28;43505;-65
2022/08/18 07:54:05;;;;;;;1.92;1.30;;;24.10;66.60;;;;;;5035023;28;43683;-65
2022/08/18 07:56:47;;;;;;;1.42;1.30;;;24.10;66.50;;;;;;5037489;28;43451;-65
2022/08/18 07:59:34;;;;;;;1.27;1.20;;;24.10;66.60;;;;;;5037163;28;43586;-65
2022/08/18 08:02:10;;;;;;;2.45;1.65;;;24.20;66.60;;;;;;5037131;28;43552;-65
2022/08/18 08:04:58;;;;;;;1.65;1.25;;;24.10;66.70;;;;;;5034584;28;44307;-65
2022/08/18 08:07:34;;;;;;;1.30;1.20;;;24.20;66.70;;;;;;5039160;28;43953;-65
2022/08/18 08:10:10;;;;;;;2.10;1.30;;;24.10;66.70;;;;;;5030443;28;43549;-65
2022/08/18 08:12:44;;;;;;;1.98;1.30;;;24.20;66.70;;;;;;5039585;28;43615;-65
2022/08/18 08:15:30;;;;;;;1.90;1.20;;;24.10;66.60;;;;;;5038732;28;44941;-65
2022/08/18 08:18:13;;;;;;;1.45;1.35;;;24.20;66.70;;;;;;5041480;28;43945;-65
2022/08/18 08:20:56;;;;;;;1.70;1.50;;;24.20;66.60;;;;;;5028554;28;43394;-65
2022/08/18 08:23:47;;;;;;;1.50;1.40;;;24.20;66.70;;;;;;5033333;28;43581;-65
2022/08/18 08:26:33;;;;;;;1.50;1.20;;;24.20;66.60;;;;;;5038894;28;44920;-64
2022/08/18 08:29:23;;;;;;;2.40;1.33;;;24.20;66.70;;;;;;5036193;28;43422;-64
2022/08/18 08:32:00;;;;;;;1.30;1.20;;;24.20;66.70;;;;;;5040533;28;43544;-64
2022/08/18 08:34:52;;;;;;;1.88;1.30;;;24.20;66.60;;;;;;5040200;28;43452;-64
2022/08/18 08:37:32;;;;;;;1.35;1.20;;;24.20;66.70;;;;;;5032902;28;44027;-65
2022/08/18 08:40:11;;;;;;;1.73;1.33;;;24.20;66.70;;;;;;5041419;28;43956;-65
2022/08/18 08:43:02;;;;;;;1.50;1.17;;;24.20;66.80;;;;;;5033322;28;43470;-65
2022/08/18 08:45:36;;;;;;;3.03;1.40;;;24.20;66.90;;;;;;5040752;28;43613;-65
2022/08/18 08:48:16;;;;;;;1.95;1.20;;;24.20;66.80;;;;;;5028782;28;44995;-65
2022/08/18 08:50:48;;;;;;;1.40;1.30;;;24.20;66.70;;;;;;5030733;28;43991;-65
2022/08/18 08:53:28;;;;;;;1.58;1.35;;;24.20;66.80;;;;;;5042183;28;43466;-65
2022/08/18 08:56:01;;;;;;;1.45;1.27;;;24.20;66.70;;;;;;5040697;28;43533;-65
2022/08/18 08:58:55;;;;;;;0.95;0.95;;;24.20;66.70;;;;;;5030554;28;44845;-65
2022/08/18 09:01:46;;;;;;;1.35;1.27;;;24.20;66.70;;;;;;5033793;28;43438;-65
2022/08/18 09:04:36;;;;;;;1.27;1.10;;;24.20;66.80;;;;;;5036278;28;43467;-65
2022/08/18 09:07:54;;;;;;;1.20;1.10;;;24.20;66.80;;;;;;5039874;28;43485;-65
2022/08/18 09:10:31;;;;;;;1.15;1.05;;;24.20;66.70;;;;;;5033631;28;44033;-65
2022/08/18 09:13:10;;;;;;;1.35;1.25;;;24.20;66.70;;;;;;5042542;28;43994;-64
2022/08/18 09:15:59;;;;;;;1.40;1.25;;;24.20;66.80;;;;;;5042089;28;43399;-65
2022/08/18 09:18:43;;;;;;;1.45;1.17;;;24.20;67.50;;;;;;5031729;28;43498;-65
2022/08/18 09:21:31;;;;;;;1.23;1.15;;;24.20;66.90;;;;;;5037728;28;44026;-64
2022/08/18 09:24:17;;;;;;;1.42;1.33;;;24.20;66.80;;;;;;5024388;28;43478;-64
2022/08/18 09:27:02;;;;;;;1.20;1.20;;;24.20;66.80;;;;;;5035935;28;43442;-64
2022/08/18 09:29:48;;;;;;;1.65;1.20;;;24.20;66.80;;;;;;5038266;28;43460;-64
2022/08/18 09:32:18;;;;;;;1.10;1.08;;;24.20;66.80;;;;;;5032111;28;44953;-64
2022/08/18 09:34:55;;;;;;;1.52;1.20;;;24.20;66.80;;;;;;5030616;28;43463;-64
2022/08/18 09:37:31;;;;;;;1.27;1.15;;;24.30;66.80;;;;;;5031723;28;43456;-64
2022/08/18 09:44:08;;;;;;;0.90;0.90;;;24.30;66.80;;;;;;5011583;28;43831;-63
2022/08/18 09:46:47;;;;;;;1.30;1.20;;;24.20;66.80;;;;;;5036812;28;43670;-63
2022/08/18 09:49:26;;;;;;;1.75;1.30;;;24.30;67.10;;;;;;5039680;28;43448;-62
2022/08/18 09:52:14;;;;;;;1.08;0.98;;;24.20;66.90;;;;;;5039038;28;43503;-63
2022/08/18 09:54:58;;;;;;;2.15;1.23;;;24.30;67.10;;;;;;5036752;28;44062;-63
2022/08/18 09:57:34;;;;;;;1.25;1.08;;;24.30;67.00;;;;;;5036537;28;43981;-63
2022/08/18 10:00:12;;;;;;;2.25;0.90;;;24.20;67.00;;;;;;5040592;28;43583;-63
2022/08/18 10:02:40;;;;;;;1.20;1.10;;;24.30;67.00;;;;;;5030143;28;43463;-63
2022/08/18 10:05:14;;;;;;;1.55;1.23;;;24.30;67.10;;;;;;5036688;28;44053;-64
2022/08/18 10:08:06;;;;;;;1.52;1.02;;;24.30;67.10;;;;;;5039784;28;43775;-63
2022/08/18 10:10:56;;;;;;;1.38;1.20;;;24.30;67.10;;;;;;5035509;28;43536;-64
2022/08/18 10:13:47;;;;;;;1.15;1.05;;;24.30;66.90;;;;;;5038421;28;43550;-63
2022/08/18 10:16:48;;;;;;;1.27;1.08;;;24.30;66.90;;;;;;5036783;28;44954;-63
2022/08/18 10:19:56;;;;;;;2.08;1.00;;;24.30;67.10;;;;;;5032331;28;43661;-62
2022/08/18 10:22:42;;;;;;;1.42;1.13;;;24.30;67.00;;;;;;5037179;28;43469;-63
2022/08/18 10:25:13;;;;;;;3.13;1.30;;;24.30;66.90;;;;;;5039049;28;43507;-63
2022/08/18 10:27:56;;;;;;;1.55;1.10;;;24.30;67.00;;;;;;5040992;28;44823;-62
2022/08/18 10:30:33;;;;;;;0.95;0.90;;;24.30;66.80;;;;;;5037279;28;44079;-62
2022/08/18 10:33:08;;;;;;;1.17;1.10;;;24.40;66.90;;;;;;5036396;28;43424;-63
2022/08/18 10:35:59;;;;;;;1.90;1.10;;;24.30;66.80;;;;;;5042090;28;43510;-63
2022/08/18 10:38:42;;;;;;;1.45;1.10;;;24.30;66.80;;;;;;5039551;28;45293;-63
2022/08/18 10:41:28;;;;;;;1.30;1.20;;;24.40;66.80;;;;;;5042561;28;43963;-63
2022/08/18 10:44:00;;;;;;;2.45;1.55;;;24.40;66.90;;;;;;5035996;28;43404;-63
2022/08/18 10:46:42;;;;;;;1.10;1.00;;;24.40;67.00;;;;;;5043240;28;43494;-63
2022/08/18 10:49:12;;;;;;;0.93;0.93;;;24.40;67.00;;;;;;5043330;28;44890;-62
2022/08/18 10:51:55;;;;;;;0.90;0.90;;;24.40;67.00;;;;;;5041733;28;43484;-62
2022/08/18 10:54:44;;;;;;;1.33;1.00;;;24.40;67.00;;;;;;5042679;28;43470;-62
2022/08/18 10:57:59;;;;;;;1.10;1.00;;;24.40;67.00;;;;;;5043630;28;43352;-62
2022/08/18 11:00:50;;;;;;;0.75;0.75;;;24.40;67.00;;;;;;5018761;28;44937;-62
2022/08/18 11:03:44;;;;;;;1.50;1.10;;;24.30;67.00;;;;;;5042947;28;43429;-63
2022/08/18 11:06:24;;;;;;;1.40;1.20;;;24.40;67.00;;;;;;5026859;28;43453;-63
2022/08/18 11:08:56;;;;;;;1.17;1.02;;;24.40;66.90;;;;;;5033745;28;43440;-58
2022/08/18 11:11:43;;;;;;;1.00;0.90;;;24.40;66.90;;;;;;5041571;28;44696;-63
2022/08/18 11:15:03;;;;;;;1.40;1.30;;;24.40;66.90;;;;;;5041314;28;43531;-62
2022/08/18 11:18:01;;;;;;;1.23;1.10;;;24.40;66.90;;;;;;5018653;28;43514;-63
2022/08/18 11:20:31;;;;;;;;;;;24.40;67.00;;;;;;5055057;28;43534;-62
2022/08/18 11:23:01;;;;;;;1.38;1.02;;;24.40;67.00;;;;;;5043245;28;44693;-63
2022/08/18 11:25:37;;;;;;;1.15;1.00;;;24.40;67.00;;;;;;5033095;28;43744;-63
2022/08/18 11:28:18;;;;;;;1.17;1.05;;;24.40;66.90;;;;;;5042703;28;43391;-62
2022/08/18 11:30:53;;;;;;;1.15;1.08;;;24.40;66.80;;;;;;5039517;28;43433;-63
2022/08/18 11:33:21;;;;;;;1.00;0.90;;;24.40;66.90;;;;;;5040271;28;44985;-62
2022/08/18 11:35:58;;;;;;;1.10;1.00;;;24.40;66.90;;;;;;5027987;28;44196;-63
2022/08/18 11:38:30;;;;;;;1.10;1.00;;;24.40;66.80;;;;;;5042857;28;43515;-62
2022/08/18 11:41:31;;;;;;;1.52;1.10;;;24.50;66.90;;;;;;5040182;28;43457;-64
2022/08/18 11:44:23;;;;;;;1.10;1.00;;;24.40;66.70;;;;;;5032836;28;44111;-64
2022/08/18 11:46:58;;;;;;;1.08;0.88;;;24.40;66.80;;;;;;5035589;28;43682;-64
2022/08/18 11:49:32;;;;;;;1.45;1.10;;;24.40;66.80;;;;;;5038447;28;43507;-63
2022/08/18 11:52:16;;;;;;;0.93;0.90;;;24.40;66.90;;;;;;5043468;28;43427;-64
2022/08/18 11:55:05;;;;;;;1.40;1.05;;;24.40;66.80;;;;;;5039609;28;43806;-64
2022/08/18 11:57:55;;;;;;;1.30;1.20;;;24.40;66.80;;;;;;5040125;28;43405;-64
2022/08/18 12:00:40;;;;;;;1.13;1.02;;;24.50;66.90;;;;;;5034884;28;43480;-64
2022/08/18 12:03:18;;;;;;;1.15;1.05;;;24.40;66.80;;;;;;5040827;28;43562;-64
2022/08/18 12:05:52;;;;;;;1.13;0.88;;;24.40;66.80;;;;;;5038894;28;44950;-64
2022/08/18 12:08:34;;;;;;;1.73;1.05;;;24.40;66.80;;;;;;5041589;28;43444;-64
2022/08/18 12:11:27;;;;;;;1.27;1.00;;;24.50;66.90;;;;;;5036622;28;43443;-64
2022/08/18 12:14:03;;;;;;;1.10;1.10;;;24.50;66.80;;;;;;5041417;28;43424;-64
2022/08/18 12:16:52;;;;;;;1.20;0.98;;;24.50;66.80;;;;;;5038185;28;45027;-64
2022/08/18 12:19:22;;;;;;;1.13;1.05;;;24.50;66.80;;;;;;5035074;28;43959;-64
2022/08/18 12:21:58;;;;;;;1.88;1.13;;;24.50;66.80;;;;;;5033274;28;43419;-65
2022/08/18 12:24:30;;;;;;;1.05;0.95;;;24.50;66.70;;;;;;5034938;28;43535;-64
2022/08/18 12:27:03;;;;;;;1.20;0.80;;;24.50;66.80;;;;;;5031954;28;44723;-64
2022/08/18 12:29:48;;;;;;;1.25;1.10;;;24.50;66.80;;;;;;5039259;28;43681;-64
2022/08/18 12:32:16;;;;;;;1.50;0.90;;;24.50;66.80;;;;;;5033791;28;43426;-64
2022/08/18 12:35:10;;;;;;;1.15;1.10;;;24.50;66.70;;;;;;5041403;28;43456;-64
2022/08/18 12:37:41;;;;;;;1.05;0.95;;;24.50;66.70;;;;;;5030248;28;44206;-64
2022/08/18 12:40:25;;;;;;;0.82;0.82;;;24.50;66.70;;;;;;5030002;28;43706;-64
2022/08/18 12:42:52;;;;;;;1.17;0.90;;;24.50;66.70;;;;;;5040121;28;43435;-66
2022/08/18 12:45:22;;;;;;;2.22;1.00;;;24.50;66.60;;;;;;5041613;28;43605;-66
2022/08/18 12:47:51;;;;;;;1.58;1.10;;;24.50;66.80;;;;;;5031047;28;44116;-66
2022/08/18 12:50:19;;;;;;;2.83;1.05;;;24.60;66.70;;;;;;5030417;28;45362;-66
2022/08/18 12:52:58;;;;;;;1.98;1.00;;;24.60;66.60;;;;;;5042222;28;43463;-66
2022/08/18 12:55:28;;;;;;;2.08;0.90;;;24.60;66.60;;;;;;5041437;28;43484;-66
2022/08/18 12:57:55;;;;;;;2.72;1.30;;;24.60;66.60;;;;;;5029237;28;45020;-65
2022/08/18 13:00:24;;;;;;;1.05;1.00;;;24.70;66.40;;;;;;5030575;28;43993;-66
2022/08/18 13:02:56;;;;;;;0.93;0.90;;;24.70;66.50;;;;;;5040393;28;43420;-66
2022/08/18 13:05:24;;;;;;;1.10;1.00;;;24.70;66.50;;;;;;5028952;28;43500;-66
2022/08/18 13:08:03;;;;;;;1.00;1.00;;;24.70;66.40;;;;;;5028902;28;44070;-65
2022/08/18 13:10:33;;;;;;;1.30;1.20;;;24.70;66.30;;;;;;5039257;28;43433;-65
2022/08/18 13:13:17;;;;;;;1.08;1.00;;;24.80;66.30;;;;;;5041979;28;43400;-65
2022/08/18 13:15:46;;;;;;;1.08;1.02;;;24.80;66.30;;;;;;5038735;28;43606;-64
2022/08/18 13:18:27;;;;;;;1.95;1.00;;;24.80;66.50;;;;;;5032819;28;44068;-65
2022/08/18 13:20:57;;;;;;;1.10;1.08;;;24.80;66.30;;;;;;5038583;28;44294;-64
2022/08/18 13:23:29;;;;;;;1.38;1.20;;;24.90;66.40;;;;;;5040231;28;43469;-63
2022/08/18 13:25:59;;;;;;;0.80;0.80;;;24.90;66.30;;;;;;5033101;28;43523;-65
2022/08/18 13:28:30;;;;;;;1.40;0.90;;;24.90;66.30;;;;;;5036610;28;44277;-65
2022/08/18 13:31:03;;;;;;;1.02;0.93;;;24.90;66.20;;;;;;5039937;28;43971;-64
2022/08/18 13:33:32;;;;;;;1.10;1.10;;;24.90;66.20;;;;;;5025270;28;43463;-65
2022/08/18 13:36:20;;;;;;;0.82;0.82;;;24.90;66.10;;;;;;5032780;28;43973;-65
2022/08/18 13:38:51;;;;;;;2.00;1.00;;;24.90;66.10;;;;;;5037967;28;45296;-64
2022/08/18 13:41:22;;;;;;;1.17;0.95;;;24.90;66.10;;;;;;5039481;28;43951;-65
2022/08/18 13:43:50;;;;;;;1.10;1.00;;;25.00;66.20;;;;;;5034286;28;44029;-65
2022/08/18 13:46:19;;;;;;;1.10;1.00;;;25.00;66.10;;;;;;5034902;28;43575;-65
2022/08/18 13:49:01;;;;;;;0.90;0.90;;;25.00;66.10;;;;;;5037930;28;44789;-64
2022/08/18 13:51:30;;;;;;;1.05;0.98;;;25.10;66.00;;;;;;5041788;28;43443;-64